sensor_id;sensor_type;location;lat;lon;timestamp;pressure;altitude;pressure_sealevel;temperature;humidity
43681;BME280;29281;50.356;30.894;2023-03-01T00:00:53;100896.59;;;-0.56;81.67
43681;BME280;29281;50.356;30.894;2023-03-01T00:01:56;100903.53;;;-0.55;81.69
43681;BME280;29281;50.356;30.894;2023-03-01T00:02:58;100900.78;;;-0.43;81.17
43681;BME280;29281;50.356;30.894;2023-03-01T00:04:01;100904.27;;;-0.44;81.30
43681;BME280;29281;50.356;30.894;2023-03-01T00:05:04;100889.64;;;-0.57;81.75
43681;BME280;29281;50.356;30.894;2023-03-01T00:06:09;100890.41;;;-0.46;81.99
43681;BME280;29281;50.356;30.894;2023-03-01T00:07:14;100884.33;;;-0.48;81.95
43681;BME280;29281;50.356;30.894;2023-03-01T00:08:17;100885.25;;;-0.52;81.75
43681;BME280;29281;50.356;30.894;2023-03-01T00:09:19;100883.63;;;-0.62;82.44
43681;BME280;29281;50.356;30.894;2023-03-01T00:10:23;100881.94;;;-0.66;82.69
43681;BME280;29281;50.356;30.894;2023-03-01T00:11:26;100880.98;;;-0.61;82.67
43681;BME280;29281;50.356;30.894;2023-03-01T00:12:31;100874.78;;;-0.49;82.27
43681;BME280;29281;50.356;30.894;2023-03-01T00:13:34;100877.49;;;-0.60;82.17
43681;BME280;29281;50.356;30.894;2023-03-01T00:14:37;100880.97;;;-0.59;82.64
43681;BME280;29281;50.356;30.894;2023-03-01T00:15:41;100872.34;;;-0.63;82.67
43681;BME280;29281;50.356;30.894;2023-03-01T00:16:44;100872.20;;;-0.52;82.72
43681;BME280;29281;50.356;30.894;2023-03-01T00:17:47;100872.36;;;-0.66;82.78
43681;BME280;29281;50.356;30.894;2023-03-01T00:18:51;100862.94;;;-0.78;83.59
43681;BME280;29281;50.356;30.894;2023-03-01T00:19:57;100854.00;;;-0.58;84.00
43681;BME280;29281;50.356;30.894;2023-03-01T00:21:02;100849.53;;;-0.47;82.85
43681;BME280;29281;50.356;30.894;2023-03-01T00:22:06;100842.66;;;-0.54;82.71
43681;BME280;29281;50.356;30.894;2023-03-01T00:23:08;100846.94;;;-0.49;82.59
43681;BME280;29281;50.356;30.894;2023-03-01T00:24:13;100842.62;;;-0.51;82.75
43681;BME280;29281;50.356;30.894;2023-03-01T00:25:16;100839.32;;;-0.65;83.05
43681;BME280;29281;50.356;30.894;2023-03-01T00:26:22;100836.57;;;-0.55;83.00
43681;BME280;29281;50.356;30.894;2023-03-01T00:27:31;100840.00;;;-0.50;82.41
43681;BME280;29281;50.356;30.894;2023-03-01T00:28:34;100836.44;;;-0.46;82.78
43681;BME280;29281;50.356;30.894;2023-03-01T00:29:37;100829.64;;;-0.57;83.04
43681;BME280;29281;50.356;30.894;2023-03-01T00:30:40;100824.22;;;-0.42;82.62
43681;BME280;29281;50.356;30.894;2023-03-01T00:31:46;100828.66;;;-0.47;82.36
43681;BME280;29281;50.356;30.894;2023-03-01T00:32:49;100819.36;;;-0.69;83.04
43681;BME280;29281;50.356;30.894;2023-03-01T00:33:53;100818.50;;;-0.70;83.81
43681;BME280;29281;50.356;30.894;2023-03-01T00:34:57;100834.16;;;-0.72;84.10
43681;BME280;29281;50.356;30.894;2023-03-01T00:36:00;100828.20;;;-0.81;84.48
43681;BME280;29281;50.356;30.894;2023-03-01T00:37:03;100830.66;;;-0.69;84.16
43681;BME280;29281;50.356;30.894;2023-03-01T00:38:11;100820.98;;;-0.61;84.05
43681;BME280;29281;50.356;30.894;2023-03-01T00:39:15;100820.04;;;-0.54;83.48
43681;BME280;29281;50.356;30.894;2023-03-01T00:40:21;100808.80;;;-0.60;83.22
43681;BME280;29281;50.356;30.894;2023-03-01T00:41:25;100820.27;;;-0.74;83.81
43681;BME280;29281;50.356;30.894;2023-03-01T00:42:31;100816.80;;;-0.74;84.34
43681;BME280;29281;50.356;30.894;2023-03-01T00:43:35;100814.15;;;-0.69;84.37
43681;BME280;29281;50.356;30.894;2023-03-01T00:44:43;100821.14;;;-0.73;84.20
43681;BME280;29281;50.356;30.894;2023-03-01T00:45:45;100807.06;;;-0.60;84.62
43681;BME280;29281;50.356;30.894;2023-03-01T00:46:49;100813.08;;;-0.53;84.14
43681;BME280;29281;50.356;30.894;2023-03-01T00:47:53;100807.91;;;-0.58;83.92
43681;BME280;29281;50.356;30.894;2023-03-01T00:48:58;100816.72;;;-0.66;83.97
43681;BME280;29281;50.356;30.894;2023-03-01T00:50:03;100809.72;;;-0.61;84.31
43681;BME280;29281;50.356;30.894;2023-03-01T00:52:10;100799.79;;;-0.35;83.61
43681;BME280;29281;50.356;30.894;2023-03-01T00:53:12;100801.38;;;-0.25;82.92
43681;BME280;29281;50.356;30.894;2023-03-01T00:54:15;100804.25;;;-0.45;82.79
43681;BME280;29281;50.356;30.894;2023-03-01T00:55:18;100806.11;;;-0.53;82.86
43681;BME280;29281;50.356;30.894;2023-03-01T00:56:23;100805.31;;;-0.59;83.62
43681;BME280;29281;50.356;30.894;2023-03-01T00:57:28;100800.83;;;-0.47;83.20
43681;BME280;29281;50.356;30.894;2023-03-01T00:58:31;100795.47;;;-0.38;82.95
43681;BME280;29281;50.356;30.894;2023-03-01T00:59:35;100792.91;;;-0.42;82.93
43681;BME280;29281;50.356;30.894;2023-03-01T01:00:39;100793.73;;;-0.37;82.78
43681;BME280;29281;50.356;30.894;2023-03-01T01:01:45;100795.45;;;-0.36;83.25
43681;BME280;29281;50.356;30.894;2023-03-01T01:02:48;100797.22;;;-0.38;83.04
43681;BME280;29281;50.356;30.894;2023-03-01T01:03:56;100800.67;;;-0.36;82.65
43681;BME280;29281;50.356;30.894;2023-03-01T01:04:59;100798.11;;;-0.41;82.82
43681;BME280;29281;50.356;30.894;2023-03-01T01:06:03;100794.62;;;-0.40;82.88
43681;BME280;29281;50.356;30.894;2023-03-01T01:07:08;100785.94;;;-0.40;82.88
43681;BME280;29281;50.356;30.894;2023-03-01T01:08:12;100790.46;;;-0.53;83.48
43681;BME280;29281;50.356;30.894;2023-03-01T01:09:15;100784.46;;;-0.61;83.65
43681;BME280;29281;50.356;30.894;2023-03-01T01:10:21;100791.34;;;-0.54;83.87
43681;BME280;29281;50.356;30.894;2023-03-01T01:11:25;100785.44;;;-0.68;84.55
43681;BME280;29281;50.356;30.894;2023-03-01T01:12:28;100780.09;;;-0.59;84.66
43681;BME280;29281;50.356;30.894;2023-03-01T01:13:31;100785.87;;;-0.36;84.08
43681;BME280;29281;50.356;30.894;2023-03-01T01:14:36;100778.77;;;-0.26;84.16
43681;BME280;29281;50.356;30.894;2023-03-01T01:15:40;100780.63;;;-0.32;83.08
43681;BME280;29281;50.356;30.894;2023-03-01T01:16:43;100784.12;;;-0.35;82.95
43681;BME280;29281;50.356;30.894;2023-03-01T01:17:46;100788.50;;;-0.37;83.53
43681;BME280;29281;50.356;30.894;2023-03-01T01:18:52;100781.59;;;-0.41;83.42
43681;BME280;29281;50.356;30.894;2023-03-01T01:19:56;100784.91;;;-0.30;83.55
43681;BME280;29281;50.356;30.894;2023-03-01T01:21:06;100785.77;;;-0.29;83.16
43681;BME280;29281;50.356;30.894;2023-03-01T01:22:09;100768.34;;;-0.27;83.47
43681;BME280;29281;50.356;30.894;2023-03-01T01:23:14;100765.70;;;-0.24;83.24
43681;BME280;29281;50.356;30.894;2023-03-01T01:24:18;100771.92;;;-0.33;83.42
43681;BME280;29281;50.356;30.894;2023-03-01T01:25:21;100766.71;;;-0.33;83.42
43681;BME280;29281;50.356;30.894;2023-03-01T01:26:31;100772.83;;;-0.36;82.73
43681;BME280;29281;50.356;30.894;2023-03-01T01:27:36;100769.30;;;-0.31;82.93
43681;BME280;29281;50.356;30.894;2023-03-01T01:28:40;100761.56;;;-0.39;82.85
43681;BME280;29281;50.356;30.894;2023-03-01T01:29:43;100764.14;;;-0.36;83.07
43681;BME280;29281;50.356;30.894;2023-03-01T01:30:46;100762.43;;;-0.39;83.05
43681;BME280;29281;50.356;30.894;2023-03-01T01:31:49;100769.34;;;-0.34;83.26
43681;BME280;29281;50.356;30.894;2023-03-01T01:32:54;100772.91;;;-0.42;82.94
43681;BME280;29281;50.356;30.894;2023-03-01T01:33:58;100772.18;;;-0.51;83.55
43681;BME280;29281;50.356;30.894;2023-03-01T01:35:01;100775.59;;;-0.46;83.73
43681;BME280;29281;50.356;30.894;2023-03-01T01:36:06;100773.78;;;-0.43;83.20
43681;BME280;29281;50.356;30.894;2023-03-01T01:37:09;100764.95;;;-0.31;82.91
43681;BME280;29281;50.356;30.894;2023-03-01T01:38:13;100766.94;;;-0.50;82.95
43681;BME280;29281;50.356;30.894;2023-03-01T01:39:21;100773.92;;;-0.52;83.53
43681;BME280;29281;50.356;30.894;2023-03-01T01:40:22;100769.47;;;-0.45;83.64
43681;BME280;29281;50.356;30.894;2023-03-01T01:41:25;100770.23;;;-0.37;83.96
43681;BME280;29281;50.356;30.894;2023-03-01T01:42:30;100750.92;;;-0.25;83.30
43681;BME280;29281;50.356;30.894;2023-03-01T01:43:35;100754.35;;;-0.22;82.69
43681;BME280;29281;50.356;30.894;2023-03-01T01:44:39;100753.59;;;-0.30;82.97
43681;BME280;29281;50.356;30.894;2023-03-01T01:45:43;100760.52;;;-0.27;83.00
43681;BME280;29281;50.356;30.894;2023-03-01T01:46:54;100752.59;;;-0.20;82.63
43681;BME280;29281;50.356;30.894;2023-03-01T01:48:03;100750.82;;;-0.18;82.50
43681;BME280;29281;50.356;30.894;2023-03-01T01:49:04;100748.20;;;-0.18;82.44
43681;BME280;29281;50.356;30.894;2023-03-01T01:50:08;100745.73;;;-0.28;83.22
43681;BME280;29281;50.356;30.894;2023-03-01T01:51:13;100751.77;;;-0.23;82.49
43681;BME280;29281;50.356;30.894;2023-03-01T01:53:29;100740.52;;;-0.28;82.80
43681;BME280;29281;50.356;30.894;2023-03-01T01:54:51;100735.22;;;-0.22;83.06
43681;BME280;29281;50.356;30.894;2023-03-01T01:55:57;100739.67;;;-0.30;82.41
43681;BME280;29281;50.356;30.894;2023-03-01T01:57:02;100735.22;;;-0.22;83.20
43681;BME280;29281;50.356;30.894;2023-03-01T01:58:06;100733.52;;;-0.25;82.17
43681;BME280;29281;50.356;30.894;2023-03-01T01:59:10;100726.72;;;-0.35;82.87
43681;BME280;29281;50.356;30.894;2023-03-01T02:00:17;100728.30;;;-0.25;83.15
43681;BME280;29281;50.356;30.894;2023-03-01T02:01:20;100719.53;;;-0.21;83.35
43681;BME280;29281;50.356;30.894;2023-03-01T02:02:27;100718.53;;;-0.14;83.10
43681;BME280;29281;50.356;30.894;2023-03-01T02:03:31;100724.60;;;-0.12;82.00
43681;BME280;29281;50.356;30.894;2023-03-01T02:04:38;100729.08;;;-0.18;82.71
43681;BME280;29281;50.356;30.894;2023-03-01T02:05:44;100722.21;;;-0.25;82.66
43681;BME280;29281;50.356;30.894;2023-03-01T02:06:55;100726.51;;;-0.21;82.79
43681;BME280;29281;50.356;30.894;2023-03-01T02:08:08;100715.36;;;-0.31;83.02
43681;BME280;29281;50.356;30.894;2023-03-01T02:09:13;100714.36;;;-0.24;82.74
43681;BME280;29281;50.356;30.894;2023-03-01T02:10:17;100711.73;;;-0.22;82.58
43681;BME280;29281;50.356;30.894;2023-03-01T02:11:21;100716.00;;;-0.17;82.15
43681;BME280;29281;50.356;30.894;2023-03-01T02:12:24;100703.03;;;-0.23;82.13
43681;BME280;29281;50.356;30.894;2023-03-01T02:13:30;100704.72;;;-0.19;81.82
43681;BME280;29281;50.356;30.894;2023-03-01T02:14:34;100707.33;;;-0.19;81.94
43681;BME280;29281;50.356;30.894;2023-03-01T02:15:39;100704.16;;;-0.39;82.99
43681;BME280;29281;50.356;30.894;2023-03-01T02:16:43;100705.98;;;-0.46;83.27
43681;BME280;29281;50.356;30.894;2023-03-01T02:17:48;100705.96;;;-0.44;83.43
43681;BME280;29281;50.356;30.894;2023-03-01T02:18:51;100696.97;;;-0.25;82.61
43681;BME280;29281;50.356;30.894;2023-03-01T02:21:30;100700.41;;;-0.21;82.38
43681;BME280;29281;50.356;30.894;2023-03-01T02:22:35;100690.66;;;-0.12;82.59
43681;BME280;29281;50.356;30.894;2023-03-01T02:23:39;100703.30;;;-0.40;83.06
43681;BME280;29281;50.356;30.894;2023-03-01T02:26:05;100694.63;;;-0.42;83.46
43681;BME280;29281;50.356;30.894;2023-03-01T02:27:10;100693.73;;;-0.41;83.70
43681;BME280;29281;50.356;30.894;2023-03-01T02:29:26;100688.30;;;-0.27;83.03
43681;BME280;29281;50.356;30.894;2023-03-01T02:30:27;100687.44;;;-0.27;83.12
43681;BME280;29281;50.356;30.894;2023-03-01T02:31:31;100689.98;;;-0.23;83.05
43681;BME280;29281;50.356;30.894;2023-03-01T02:32:47;100684.60;;;-0.14;82.79
43681;BME280;29281;50.356;30.894;2023-03-01T02:33:52;100687.03;;;-0.02;82.05
43681;BME280;29281;50.356;30.894;2023-03-01T02:34:55;100684.42;;;-0.02;81.97
43681;BME280;29281;50.356;30.894;2023-03-01T02:36:00;100687.96;;;-0.06;82.35
43681;BME280;29281;50.356;30.894;2023-03-01T02:37:05;100683.06;;;-0.25;82.52
43681;BME280;29281;50.356;30.894;2023-03-01T02:38:08;100688.52;;;-0.41;83.48
43681;BME280;29281;50.356;30.894;2023-03-01T02:39:13;100685.01;;;-0.38;83.46
43681;BME280;29281;50.356;30.894;2023-03-01T02:40:17;100685.81;;;-0.33;83.54
43681;BME280;29281;50.356;30.894;2023-03-01T02:41:21;100675.59;;;-0.47;83.92
43681;BME280;29281;50.356;30.894;2023-03-01T02:42:28;100678.92;;;-0.39;83.77
43681;BME280;29281;50.356;30.894;2023-03-01T02:43:31;100677.16;;;-0.37;83.65
43681;BME280;29281;50.356;30.894;2023-03-01T02:44:36;100680.02;;;-0.53;84.18
43681;BME280;29281;50.356;30.894;2023-03-01T02:45:42;100673.08;;;-0.54;84.26
43681;BME280;29281;50.356;30.894;2023-03-01T02:46:46;100668.70;;;-0.52;84.10
43681;BME280;29281;50.356;30.894;2023-03-01T02:47:49;100670.39;;;-0.48;84.20
43681;BME280;29281;50.356;30.894;2023-03-01T02:48:54;100667.86;;;-0.54;84.12
43681;BME280;29281;50.356;30.894;2023-03-01T02:50:00;100668.70;;;-0.52;83.87
43681;BME280;29281;50.356;30.894;2023-03-01T02:51:17;100665.30;;;-0.57;83.91
43681;BME280;29281;50.356;30.894;2023-03-01T02:53:27;100659.20;;;-0.56;84.12
43681;BME280;29281;50.356;30.894;2023-03-01T02:54:29;100657.43;;;-0.54;84.15
43681;BME280;29281;50.356;30.894;2023-03-01T02:55:34;100657.27;;;-0.45;83.46
43681;BME280;29281;50.356;30.894;2023-03-01T02:56:36;100642.40;;;-0.39;84.23
43681;BME280;29281;50.356;30.894;2023-03-01T02:57:42;100641.53;;;-0.39;83.79
43681;BME280;29281;50.356;30.894;2023-03-01T02:58:46;100642.35;;;-0.36;83.10
43681;BME280;29281;50.356;30.894;2023-03-01T02:59:54;100631.18;;;-0.45;83.33
43681;BME280;29281;50.356;30.894;2023-03-01T03:00:59;100636.41;;;-0.45;83.45
43681;BME280;29281;50.356;30.894;2023-03-01T03:02:17;100636.31;;;-0.39;83.55
43681;BME280;29281;50.356;30.894;2023-03-01T03:03:14;100636.13;;;-0.28;83.29
43681;BME280;29281;50.356;30.894;2023-03-01T03:04:19;100637.31;;;-0.46;83.54
43681;BME280;29281;50.356;30.894;2023-03-01T03:05:26;100630.93;;;-0.30;83.23
43681;BME280;29281;50.356;30.894;2023-03-01T03:06:33;100635.22;;;-0.26;82.86
43681;BME280;29281;50.356;30.894;2023-03-01T03:07:39;100635.03;;;-0.15;82.89
43681;BME280;29281;50.356;30.894;2023-03-01T03:08:42;100629.19;;;-0.29;82.41
43681;BME280;29281;50.356;30.894;2023-03-01T03:09:46;100623.41;;;-0.47;83.32
43681;BME280;29281;50.356;30.894;2023-03-01T03:10:49;100629.59;;;-0.54;83.79
43681;BME280;29281;50.356;30.894;2023-03-01T03:11:53;100621.55;;;-0.40;83.37
43681;BME280;29281;50.356;30.894;2023-03-01T03:12:58;100620.95;;;-0.57;84.05
43681;BME280;29281;50.356;30.894;2023-03-01T03:14:02;100619.94;;;-0.47;83.99
43681;BME280;29281;50.356;30.894;2023-03-01T03:15:06;100609.79;;;-0.65;84.40
43681;BME280;29281;50.356;30.894;2023-03-01T03:16:12;100608.15;;;-0.73;85.56
43681;BME280;29281;50.356;30.894;2023-03-01T03:17:15;100607.00;;;-0.55;85.38
43681;BME280;29281;50.356;30.894;2023-03-01T03:18:18;100609.34;;;-0.38;84.37
43681;BME280;29281;50.356;30.894;2023-03-01T03:19:22;100611.38;;;-0.57;84.42
43681;BME280;29281;50.356;30.894;2023-03-01T03:20:26;100612.44;;;-0.68;85.13
43681;BME280;29281;50.356;30.894;2023-03-01T03:21:33;100611.42;;;-0.60;84.96
43681;BME280;29281;50.356;30.894;2023-03-01T03:22:37;100606.09;;;-0.52;85.54
43681;BME280;29281;50.356;30.894;2023-03-01T03:23:42;100616.55;;;-0.54;84.37
43681;BME280;29281;50.356;30.894;2023-03-01T03:24:46;100612.17;;;-0.52;84.82
43681;BME280;29281;50.356;30.894;2023-03-01T03:25:49;100618.98;;;-0.43;84.44
43681;BME280;29281;50.356;30.894;2023-03-01T03:26:52;100618.26;;;-0.51;84.49
43681;BME280;29281;50.356;30.894;2023-03-01T03:27:56;100618.94;;;-0.40;84.14
43681;BME280;29281;50.356;30.894;2023-03-01T03:28:59;100620.70;;;-0.42;83.97
43681;BME280;29281;50.356;30.894;2023-03-01T03:30:03;100620.61;;;-0.36;84.21
43681;BME280;29281;50.356;30.894;2023-03-01T03:31:06;100617.81;;;-0.25;83.85
43681;BME280;29281;50.356;30.894;2023-03-01T03:32:11;100625.55;;;-0.19;83.15
43681;BME280;29281;50.356;30.894;2023-03-01T03:33:14;100629.91;;;-0.20;83.30
43681;BME280;29281;50.356;30.894;2023-03-01T03:34:19;100620.33;;;-0.19;83.45
43681;BME280;29281;50.356;30.894;2023-03-01T03:35:27;100625.40;;;-0.12;83.47
43681;BME280;29281;50.356;30.894;2023-03-01T03:36:38;100620.20;;;-0.13;83.29
43681;BME280;29281;50.356;30.894;2023-03-01T03:37:38;100618.43;;;-0.11;82.86
43681;BME280;29281;50.356;30.894;2023-03-01T03:39:01;100618.34;;;-0.05;82.68
43681;BME280;29281;50.356;30.894;2023-03-01T03:40:05;100616.61;;;-0.06;82.54
43681;BME280;29281;50.356;30.894;2023-03-01T03:41:10;100621.67;;;0.02;82.48
43681;BME280;29281;50.356;30.894;2023-03-01T03:42:13;100615.52;;;0.06;81.86
43681;BME280;29281;50.356;30.894;2023-03-01T03:43:21;100618.99;;;0.06;82.32
43681;BME280;29281;50.356;30.894;2023-03-01T03:44:24;100618.89;;;0.12;81.90
43681;BME280;29281;50.356;30.894;2023-03-01T03:45:27;100612.93;;;0.04;82.46
43681;BME280;29281;50.356;30.894;2023-03-01T03:46:30;100615.70;;;-0.04;82.12
43681;BME280;29281;50.356;30.894;2023-03-01T03:47:34;100603.51;;;-0.03;82.33
43681;BME280;29281;50.356;30.894;2023-03-01T03:48:38;100604.19;;;0.07;82.43
43681;BME280;29281;50.356;30.894;2023-03-01T03:49:42;100600.64;;;0.11;82.20
43681;BME280;29281;50.356;30.894;2023-03-01T03:50:49;100602.34;;;0.13;82.39
43681;BME280;29281;50.356;30.894;2023-03-01T03:51:52;100604.97;;;0.12;81.97
43681;BME280;29281;50.356;30.894;2023-03-01T03:52:57;100612.80;;;0.12;82.17
43681;BME280;29281;50.356;30.894;2023-03-01T03:54:00;100613.80;;;0.05;81.37
43681;BME280;29281;50.356;30.894;2023-03-01T03:55:03;100617.03;;;0.17;81.56
43681;BME280;29281;50.356;30.894;2023-03-01T03:56:06;100618.84;;;0.15;81.13
43681;BME280;29281;50.356;30.894;2023-03-01T03:57:11;100626.87;;;0.03;81.96
43681;BME280;29281;50.356;30.894;2023-03-01T03:58:15;100629.78;;;-0.14;82.00
43681;BME280;29281;50.356;30.894;2023-03-01T03:59:19;100624.69;;;-0.20;81.82
43681;BME280;29281;50.356;30.894;2023-03-01T04:00:22;100627.34;;;-0.23;82.64
43681;BME280;29281;50.356;30.894;2023-03-01T04:01:26;100631.61;;;-0.17;82.48
43681;BME280;29281;50.356;30.894;2023-03-01T04:02:29;100628.03;;;-0.13;82.13
43681;BME280;29281;50.356;30.894;2023-03-01T04:03:34;100625.33;;;-0.07;82.33
43681;BME280;29281;50.356;30.894;2023-03-01T04:04:37;100616.56;;;-0.03;82.46
43681;BME280;29281;50.356;30.894;2023-03-01T04:05:41;100620.80;;;0.03;82.23
43681;BME280;29281;50.356;30.894;2023-03-01T04:06:46;100615.70;;;-0.04;81.86
43681;BME280;29281;50.356;30.894;2023-03-01T04:07:50;100607.97;;;-0.10;81.75
43681;BME280;29281;50.356;30.894;2023-03-01T04:08:55;100608.68;;;0.00;81.77
43681;BME280;29281;50.356;30.894;2023-03-01T04:10:05;100609.41;;;0.07;81.07
43681;BME280;29281;50.356;30.894;2023-03-01T04:11:19;100603.37;;;0.03;81.33
43681;BME280;29281;50.356;30.894;2023-03-01T04:12:31;100602.48;;;0.04;81.26
43681;BME280;29281;50.356;30.894;2023-03-01T04:13:35;100599.02;;;0.04;81.08
43681;BME280;29281;50.356;30.894;2023-03-01T04:14:39;100598.23;;;0.00;81.24
43681;BME280;29281;50.356;30.894;2023-03-01T04:15:42;100598.39;;;-0.09;82.09
43681;BME280;29281;50.356;30.894;2023-03-01T04:16:48;100593.02;;;0.00;81.62
43681;BME280;29281;50.356;30.894;2023-03-01T04:17:52;100593.69;;;0.10;81.55
43681;BME280;29281;50.356;30.894;2023-03-01T04:18:56;100603.48;;;-0.02;81.81
43681;BME280;29281;50.356;30.894;2023-03-01T04:20:03;100596.61;;;-0.07;82.61
43681;BME280;29281;50.356;30.894;2023-03-01T04:21:09;100602.59;;;-0.01;82.09
43681;BME280;29281;50.356;30.894;2023-03-01T04:22:14;100591.46;;;-0.12;82.25
43681;BME280;29281;50.356;30.894;2023-03-01T04:23:21;100600.48;;;-0.29;83.14
43681;BME280;29281;50.356;30.894;2023-03-01T04:24:24;100598.54;;;-0.17;83.16
43681;BME280;29281;50.356;30.894;2023-03-01T04:25:28;100597.47;;;-0.07;82.91
43681;BME280;29281;50.356;30.894;2023-03-01T04:26:37;100604.38;;;-0.03;82.43
43681;BME280;29281;50.356;30.894;2023-03-01T04:27:38;100600.29;;;-0.17;82.53
43681;BME280;29281;50.356;30.894;2023-03-01T04:28:42;100594.45;;;-0.31;83.13
43681;BME280;29281;50.356;30.894;2023-03-01T04:29:48;100602.11;;;-0.22;83.14
43681;BME280;29281;50.356;30.894;2023-03-01T04:30:52;100604.67;;;-0.19;82.99
43681;BME280;29281;50.356;30.894;2023-03-01T04:31:57;100599.45;;;-0.19;82.94
43681;BME280;29281;50.356;30.894;2023-03-01T04:33:03;100602.95;;;-0.20;82.92
43681;BME280;29281;50.356;30.894;2023-03-01T04:34:06;100598.23;;;0.00;82.54
43681;BME280;29281;50.356;30.894;2023-03-01T04:35:09;100597.23;;;0.06;82.65
43681;BME280;29281;50.356;30.894;2023-03-01T04:36:12;100597.42;;;-0.04;82.94
43681;BME280;29281;50.356;30.894;2023-03-01T04:37:18;100592.93;;;0.03;83.12
43681;BME280;29281;50.356;30.894;2023-03-01T04:38:22;100592.09;;;0.01;82.21
43681;BME280;29281;50.356;30.894;2023-03-01T04:39:26;100594.68;;;0.03;82.09
43681;BME280;29281;50.356;30.894;2023-03-01T04:40:28;100594.68;;;0.03;82.23
43681;BME280;29281;50.356;30.894;2023-03-01T04:41:31;100601.76;;;-0.03;82.43
43681;BME280;29281;50.356;30.894;2023-03-01T04:42:35;100596.43;;;0.02;82.54
43681;BME280;29281;50.356;30.894;2023-03-01T04:43:38;100599.13;;;-0.01;83.24
43681;BME280;29281;50.356;30.894;2023-03-01T04:44:42;100598.97;;;0.07;83.10
43681;BME280;29281;50.356;30.894;2023-03-01T04:45:47;100607.56;;;0.13;82.27
43681;BME280;29281;50.356;30.894;2023-03-01T04:46:49;100611.08;;;0.11;82.36
43681;BME280;29281;50.356;30.894;2023-03-01T04:47:52;100604.92;;;0.15;82.40
43681;BME280;29281;50.356;30.894;2023-03-01T04:48:56;100608.55;;;0.06;82.66
43681;BME280;29281;50.356;30.894;2023-03-01T04:50:00;100611.29;;;0.00;82.74
43681;BME280;29281;50.356;30.894;2023-03-01T04:51:04;100617.24;;;0.07;82.19
43681;BME280;29281;50.356;30.894;2023-03-01T04:52:08;100609.17;;;0.19;82.08
43681;BME280;29281;50.356;30.894;2023-03-01T04:53:11;100608.92;;;0.31;82.06
43681;BME280;29281;50.356;30.894;2023-03-01T04:54:14;100612.24;;;0.41;81.68
43681;BME280;29281;50.356;30.894;2023-03-01T04:55:17;100607.05;;;0.39;80.94
43681;BME280;29281;50.356;30.894;2023-03-01T04:56:23;100615.77;;;0.38;80.99
43681;BME280;29281;50.356;30.894;2023-03-01T04:57:25;100612.52;;;0.27;81.15
43681;BME280;29281;50.356;30.894;2023-03-01T04:58:29;100611.52;;;0.32;81.60
43681;BME280;29281;50.356;30.894;2023-03-01T04:59:31;100621.23;;;0.26;81.91
43681;BME280;29281;50.356;30.894;2023-03-01T05:00:34;100619.56;;;0.22;82.10
43681;BME280;29281;50.356;30.894;2023-03-01T05:01:38;100613.67;;;0.12;82.22
43681;BME280;29281;50.356;30.894;2023-03-01T05:02:41;100615.72;;;-0.05;82.97
43681;BME280;29281;50.356;30.894;2023-03-01T05:03:47;100616.61;;;-0.06;83.18
43681;BME280;29281;50.356;30.894;2023-03-01T05:04:49;100616.59;;;-0.05;83.54
43681;BME280;29281;50.356;30.894;2023-03-01T05:05:53;100610.55;;;-0.08;83.80
43681;BME280;29281;50.356;30.894;2023-03-01T05:06:56;100608.45;;;0.12;82.93
43681;BME280;29281;50.356;30.894;2023-03-01T05:08:05;100612.64;;;0.19;82.61
43681;BME280;29281;50.356;30.894;2023-03-01T05:09:09;100610.63;;;0.33;81.79
43681;BME280;29281;50.356;30.894;2023-03-01T05:10:15;100604.95;;;0.56;80.80
43681;BME280;29281;50.356;30.894;2023-03-01T05:11:19;100608.52;;;0.52;80.90
43681;BME280;29281;50.356;30.894;2023-03-01T05:12:22;100614.62;;;0.51;80.66
43681;BME280;29281;50.356;30.894;2023-03-01T05:13:25;100613.21;;;0.35;81.42
43681;BME280;29281;50.356;30.894;2023-03-01T05:14:28;100620.77;;;0.49;81.30
43681;BME280;29281;50.356;30.894;2023-03-01T05:15:31;100624.05;;;0.60;80.90
43681;BME280;29281;50.356;30.894;2023-03-01T05:16:35;100634.00;;;0.41;80.88
43681;BME280;29281;50.356;30.894;2023-03-01T05:17:39;100636.16;;;0.19;82.21
43681;BME280;29281;50.356;30.894;2023-03-01T05:18:42;100631.66;;;0.27;82.36
43681;BME280;29281;50.356;30.894;2023-03-01T05:19:46;100642.54;;;0.49;81.93
43681;BME280;29281;50.356;30.894;2023-03-01T05:20:49;100637.64;;;0.32;82.42
43681;BME280;29281;50.356;30.894;2023-03-01T05:21:52;100638.58;;;0.30;82.77
43681;BME280;29281;50.356;30.894;2023-03-01T05:23:04;100640.95;;;0.42;82.04
43681;BME280;29281;50.356;30.894;2023-03-01T05:24:07;100642.95;;;0.29;82.81
43681;BME280;29281;50.356;30.894;2023-03-01T05:25:12;100641.95;;;0.35;83.25
43681;BME280;29281;50.356;30.894;2023-03-01T05:26:20;100633.09;;;0.44;83.07
43681;BME280;29281;50.356;30.894;2023-03-01T05:27:25;100642.43;;;0.55;82.52
43681;BME280;29281;50.356;30.894;2023-03-01T05:28:31;100641.77;;;0.46;83.06
43681;BME280;29281;50.356;30.894;2023-03-01T05:29:40;100638.17;;;0.50;82.82
43681;BME280;29281;50.356;30.894;2023-03-01T05:30:43;100638.42;;;0.38;83.07
43681;BME280;29281;50.356;30.894;2023-03-01T05:31:46;100632.69;;;0.62;82.62
43681;BME280;29281;50.356;30.894;2023-03-01T05:32:50;100633.68;;;0.98;81.77
43681;BME280;29281;50.356;30.894;2023-03-01T05:34:00;100625.81;;;0.99;81.14
43681;BME280;29281;50.356;30.894;2023-03-01T05:35:05;100623.16;;;1.01;81.34
43681;BME280;29281;50.356;30.894;2023-03-01T05:36:08;100622.58;;;0.88;81.62
43681;BME280;29281;50.356;30.894;2023-03-01T05:37:12;100627.09;;;0.80;82.38
43681;BME280;29281;50.356;30.894;2023-03-01T05:38:16;100613.01;;;0.87;82.36
43681;BME280;29281;50.356;30.894;2023-03-01T05:39:26;100621.31;;;1.06;81.86
43681;BME280;29281;50.356;30.894;2023-03-01T05:40:26;100617.92;;;1.38;81.15
43681;BME280;29281;50.356;30.894;2023-03-01T05:41:29;100618.22;;;1.26;80.48
43681;BME280;29281;50.356;30.894;2023-03-01T05:42:32;100624.73;;;1.08;80.85